Time;durP1;ratioP1;P1;durP2;ratioP2;P2;SDS_P1;SDS_P2;PMS_P1;PMS_P2;Temp;Humidity;BMP_temperature;BMP_pressure;BME280_temperature;BME280_humidity;BME280_pressure;Samples;Min_cycle;Max_cycle;Signal;HPM_P1;HPM_P2
2022/09/20 00:02:17;;;;;;;;;;;;;;;13.06;62.89;95275.69;5056093;28;987;-58
2022/09/20 00:04:44;;;;;;;;;;;;;;;12.91;62.52;95280.09;5055817;28;1016;-58
2022/09/20 00:07:09;;;;;;;;;;;;;;;12.88;63.06;95276.75;5055769;28;1910;-58
2022/09/20 00:09:36;;;;;;;;;;;;;;;13.12;61.90;95279.53;5055832;28;984;-58
2022/09/20 00:12:02;;;;;;;;;;;;;;;13.11;61.99;95280.53;5055339;28;1096;-58
2022/09/20 00:14:28;;;;;;;;;;;;;;;13.22;61.72;95277.47;5055527;28;1027;-58
2022/09/20 00:16:54;;;;;;;;;;;;;;;13.04;62.20;95278.53;5055673;28;1028;-58
2022/09/20 00:19:20;;;;;;;;;;;;;;;12.94;62.41;95275.25;5055520;28;1095;-58
2022/09/20 00:21:46;;;;;;;;;;;;;;;12.91;62.61;95275.56;5055448;28;1052;-60
2022/09/20 00:24:12;;;;;;;;;;;;;;;12.86;62.74;95277.91;5055579;28;1026;-60
2022/09/20 00:26:39;;;;;;;;;;;;;;;12.84;62.56;95279.94;5055237;28;1048;-60
2022/09/20 00:29:05;;;;;;;;;;;;;;;12.67;63.07;95281.81;5055187;28;1985;-60
2022/09/20 00:31:31;;;;;;;;;;;;;;;12.65;63.32;95287.38;5055387;28;1024;-60
2022/09/20 00:36:42;;;;;;;;;;;;;;;12.57;63.59;95273.97;5054692;28;994;-60
2022/09/20 00:39:09;;;;;;;;;;;;;;;12.52;63.55;95280.84;5055195;28;1859;-61
2022/09/20 00:41:36;;;;;;;;;;;;;;;12.53;63.37;95278.00;5054899;28;970;-61
2022/09/20 00:44:22;;;;;;;;;;;;;;;12.41;63.45;95272.16;5055195;28;1030;-61
2022/09/20 00:46:48;;;;;;;;;;;;;;;12.32;63.38;95280.38;5054754;28;1052;-60
2022/09/20 00:49:22;;;;;;;;;;;;;;;12.18;64.09;95280.06;5054885;28;1906;-61
2022/09/20 00:51:50;;;;;;;;;;;;;;;12.27;64.04;95280.88;5054613;28;1012;-60
2022/09/20 00:54:18;;;;;;;;;;;;;;;12.35;63.77;95280.03;5054839;28;980;-60
2022/09/20 00:56:44;;;;;;;;;;;;;;;12.30;63.91;95275.19;5054355;28;1117;-61
2022/09/20 00:59:18;;;;;;;;;;;;;;;12.43;63.55;95282.72;5041002;28;1310;-61
2022/09/20 01:01:45;;;;;;;;;;;;;;;12.36;63.45;95290.59;5034560;28;1033;-60
2022/09/20 01:04:13;;;;;;;;;;;;;;;12.28;63.64;95283.41;5034787;28;1048;-61
2022/09/20 01:06:41;;;;;;;;;;;;;;;12.23;64.14;95285.72;5034650;28;1013;-60
2022/09/20 01:09:07;;;;;;;;;;;;;;;12.23;64.13;95288.41;5034569;28;1995;-60
2022/09/20 01:11:34;;;;;;;;;;;;;;;12.32;63.75;95297.31;5034502;28;1111;-61
2022/09/20 01:14:00;;;;;;;;;;;;;;;12.24;63.10;95294.63;5034520;28;1025;-60
2022/09/20 01:16:28;;;;;;;;;;;;;;;12.26;63.36;95288.09;5034453;28;1146;-61
2022/09/20 01:18:56;;;;;;;;;;;;;;;12.18;63.57;95289.91;5034476;28;952;-60
2022/09/20 01:21:22;;;;;;;;;;;;;;;12.13;64.03;95300.31;5034271;28;1063;-60
2022/09/20 01:24:15;;;;;;;;;;;;;;;12.07;64.11;95304.50;5034653;28;953;-61
2022/09/20 01:26:51;;;;;;;;;;;;;;;11.98;64.00;95303.66;5034247;28;937;-60
2022/09/20 01:29:35;;;;;;;;;;;;;;;11.95;64.25;95295.09;5034273;28;1910;-60
2022/09/20 01:32:05;;;;;;;;;;;;;;;11.86;64.62;95294.25;5033954;28;1155;-60
2022/09/20 01:34:35;;;;;;;;;;;;;;;11.93;64.85;95294.44;5034198;28;929;-61
2022/09/20 01:37:20;;;;;;;;;;;;;;;12.07;64.37;95299.16;5033894;28;1078;-60
2022/09/20 01:39:52;;;;;;;;;;;;;;;12.07;64.53;95291.94;5034111;28;995;-61
2022/09/20 01:42:23;;;;;;;;;;;;;;;11.92;64.62;95296.28;5033844;28;1032;-60
2022/09/20 01:44:49;;;;;;;;;;;;;;;11.82;64.67;95299.09;5034176;28;991;-60
2022/09/20 01:47:30;;;;;;;;;;;;;;;11.81;64.83;95293.88;5033902;28;1907;-60
2022/09/20 01:50:19;;;;;;;;;;;;;;;11.77;65.08;95282.66;5033998;28;1037;-60
2022/09/20 01:53:03;;;;;;;;;;;;;;;11.90;65.27;95293.75;5033401;28;1436;-60
2022/09/20 01:55:38;;;;;;;;;;;;;;;11.92;65.16;95288.25;5032693;28;1268;-61
2022/09/20 01:58:07;;;;;;;;;;;;;;;11.96;65.11;95305.66;5038428;28;1241;-60
2022/09/20 02:00:39;;;;;;;;;;;;;;;11.84;65.54;95298.94;5053652;28;1113;-60
2022/09/20 02:03:05;;;;;;;;;;;;;;;11.60;66.73;95297.03;5053318;28;1216;-60
2022/09/20 02:05:57;;;;;;;;;;;;;;;11.82;65.86;95292.88;5053628;28;1075;-60
2022/09/20 02:08:32;;;;;;;;;;;;;;;11.84;65.60;95296.25;5053502;28;1953;-60
2022/09/20 02:11:10;;;;;;;;;;;;;;;11.82;65.36;95293.72;5053551;28;1030;-60
2022/09/20 02:13:36;;;;;;;;;;;;;;;11.84;65.36;95304.28;5053233;28;1012;-60
2022/09/20 02:16:08;;;;;;;;;;;;;;;11.85;65.49;95305.94;5053788;28;996;-60
2022/09/20 02:18:43;;;;;;;;;;;;;;;11.87;65.72;95304.78;5053414;28;1025;-60
2022/09/20 02:21:15;;;;;;;;;;;;;;;11.79;65.87;95307.44;5053512;28;1046;-60
2022/09/20 02:23:47;;;;;;;;;;;;;;;11.73;66.76;95297.41;5053104;28;1029;-60
2022/09/20 02:26:19;;;;;;;;;;;;;;;11.77;66.55;95293.38;5053264;28;1036;-60
2022/09/20 02:28:45;;;;;;;;;;;;;;;11.69;66.14;95282.66;5052936;28;1906;-60
2022/09/20 02:31:11;;;;;;;;;;;;;;;11.60;66.52;95286.31;5053237;28;1213;-60
2022/09/20 02:33:49;;;;;;;;;;;;;;;11.69;66.21;95279.97;5053212;28;1012;-60
2022/09/20 02:36:21;;;;;;;;;;;;;;;11.71;65.91;95286.84;5053184;28;1033;-61
2022/09/20 02:38:50;;;;;;;;;;;;;;;11.76;65.86;95281.00;5051674;28;1040;-60
2022/09/20 02:41:22;;;;;;;;;;;;;;;11.72;66.23;95290.34;5053416;28;977;-61
2022/09/20 02:44:07;;;;;;;;;;;;;;;11.59;66.44;95279.28;5053068;28;1012;-60
2022/09/20 02:46:43;;;;;;;;;;;;;;;11.51;66.76;95282.78;5053136;28;1032;-60
2022/09/20 02:49:12;;;;;;;;;;;;;;;11.66;66.70;95286.50;5052917;28;2293;-60
2022/09/20 02:51:39;;;;;;;;;;;;;;;11.61;66.33;95293.34;5053277;28;1039;-60
2022/09/20 02:54:24;;;;;;;;;;;;;;;11.55;66.08;95291.31;5053082;28;1030;-60
2022/09/20 02:57:02;;;;;;;;;;;;;;;11.36;66.29;95298.63;5052837;28;1103;-60
2022/09/20 02:59:28;;;;;;;;;;;;;;;11.35;66.70;95298.81;5038985;28;1248;-60
2022/09/20 03:02:13;;;;;;;;;;;;;;;11.42;65.99;95302.50;5036953;28;968;-59
2022/09/20 03:04:58;;;;;;;;;;;;;;;11.44;66.34;95305.84;5036895;28;1004;-60
2022/09/20 03:07:43;;;;;;;;;;;;;;;11.33;66.51;95315.03;5036898;28;1914;-60
2022/09/20 03:10:09;;;;;;;;;;;;;;;11.24;67.22;95324.84;5036886;28;1003;-60
2022/09/20 03:12:42;;;;;;;;;;;;;;;11.20;66.46;95318.16;5036774;28;976;-60
2022/09/20 03:15:26;;;;;;;;;;;;;;;11.08;66.34;95317.59;5036769;28;1848;-60
2022/09/20 03:18:01;;;;;;;;;;;;;;;10.89;66.74;95304.47;5036522;28;1107;-59
2022/09/20 03:20:32;;;;;;;;;;;;;;;11.03;66.59;95316.41;5036749;28;1206;-60
2022/09/20 03:23:07;;;;;;;;;;;;;;;11.14;66.62;95313.44;5036709;28;1024;-60
2022/09/20 03:25:52;;;;;;;;;;;;;;;11.10;66.98;95320.94;5036808;28;1047;-59
2022/09/20 03:28:28;;;;;;;;;;;;;;;11.13;67.69;95322.47;5036447;28;1991;-60
2022/09/20 03:31:10;;;;;;;;;;;;;;;11.27;67.17;95321.88;5036491;28;1019;-60
2022/09/20 03:33:46;;;;;;;;;;;;;;;11.02;67.18;95323.59;5036586;28;956;-60
2022/09/20 03:36:30;;;;;;;;;;;;;;;11.14;67.25;95327.66;5036459;28;1045;-60
2022/09/20 03:39:05;;;;;;;;;;;;;;;11.26;67.06;95328.22;5036204;28;1040;-59
2022/09/20 03:41:50;;;;;;;;;;;;;;;11.25;67.02;95325.69;5036289;28;1044;-60
2022/09/20 03:44:35;;;;;;;;;;;;;;;10.92;67.82;95321.00;5036353;28;996;-59
2022/09/20 03:47:12;;;;;;;;;;;;;;;10.80;68.00;95332.16;5036131;28;1209;-60
2022/09/20 03:49:56;;;;;;;;;;;;;;;10.88;68.57;95326.84;5036011;28;1910;-60
2022/09/20 03:52:25;;;;;;;;;;;;;;;10.91;68.43;95339.94;5036152;28;1074;-59
2022/09/20 03:54:57;;;;;;;;;;;;;;;10.98;68.44;95345.47;5035841;28;1292;-60
2022/09/20 03:58:02;;;;;;;;;;;;;;;11.09;68.46;95337.16;5036069;28;1036;-60
2022/09/20 04:00:28;;;;;;;;;;;;;;;10.91;68.88;95345.28;5013783;28;1076;-60
2022/09/20 04:03:03;;;;;;;;;;;;;;;10.81;69.13;95345.34;5013878;28;1044;-59
2022/09/20 04:05:39;;;;;;;;;;;;;;;10.79;69.54;95350.03;5025576;28;1091;-60
2022/09/20 04:08:16;;;;;;;;;;;;;;;10.89;69.28;95340.06;5035887;28;1910;-60
2022/09/20 04:10:53;;;;;;;;;;;;;;;10.91;69.49;95351.47;5034395;28;1029;-59
2022/09/20 04:13:34;;;;;;;;;;;;;;;11.06;68.54;95343.69;5035757;28;1040;-59
2022/09/20 04:16:17;;;;;;;;;;;;;;;11.02;68.40;95347.69;5035714;28;1024;-60
2022/09/20 04:18:55;;;;;;;;;;;;;;;11.16;68.00;95351.59;5035480;28;955;-60
2022/09/20 04:21:32;;;;;;;;;;;;;;;11.13;68.12;95360.78;5035645;28;938;-59
2022/09/20 04:24:01;;;;;;;;;;;;;;;11.18;68.42;95362.97;5035561;28;1121;-60
2022/09/20 04:26:29;;;;;;;;;;;;;;;11.29;68.25;95368.03;5035676;28;1026;-60
2022/09/20 04:28:58;;;;;;;;;;;;;;;11.31;68.02;95362.53;5035230;28;1906;-60
2022/09/20 04:31:26;;;;;;;;;;;;;;;11.26;68.58;95357.66;5035470;28;1024;-59
2022/09/20 04:33:54;;;;;;;;;;;;;;;11.24;69.05;95367.69;5035635;28;969;-60
2022/09/20 04:36:55;;;;;;;;;;;;;;;11.17;69.17;95363.13;5035304;28;1291;-60
2022/09/20 04:39:24;;;;;;;;;;;;;;;11.32;69.20;95362.38;5035225;28;1076;-60
2022/09/20 04:42:08;;;;;;;;;;;;;;;11.29;69.59;95364.53;5035134;28;1028;-60
2022/09/20 04:44:49;;;;;;;;;;;;;;;11.33;69.25;95371.25;5034979;28;1196;-60
2022/09/20 04:47:37;;;;;;;;;;;;;;;11.19;69.37;95382.53;5035285;28;962;-60
2022/09/20 04:50:22;;;;;;;;;;;;;;;11.14;70.25;95383.84;5034796;28;1033;-60
2022/09/20 04:52:48;;;;;;;;;;;;;;;11.24;71.02;95383.75;5035479;28;1013;-60
2022/09/20 04:55:23;;;;;;;;;;;;;;;11.34;70.63;95386.28;5034839;28;1102;-60
2022/09/20 04:57:55;;;;;;;;;;;;;;;11.42;70.13;95397.06;5037635;28;1296;-61
2022/09/20 05:00:23;;;;;;;;;;;;;;;11.55;69.85;95390.41;5054736;28;978;-61
2022/09/20 05:02:51;;;;;;;;;;;;;;;11.65;69.31;95391.13;5054667;28;1103;-60
2022/09/20 05:05:34;;;;;;;;;;;;;;;11.68;69.46;95396.16;5054493;28;1054;-60
2022/09/20 05:08:19;;;;;;;;;;;;;;;11.71;69.84;95395.84;5054492;28;1914;-60
2022/09/20 05:11:01;;;;;;;;;;;;;;;11.90;69.64;95386.72;5054332;28;1075;-60
2022/09/20 05:13:45;;;;;;;;;;;;;;;12.20;68.47;95398.66;5054521;28;969;-60
2022/09/20 05:16:19;;;;;;;;;;;;;;;12.40;67.99;95390.31;5054469;28;1003;-60
2022/09/20 05:18:49;;;;;;;;;;;;;;;12.55;67.60;95388.63;5054321;28;1076;-60
2022/09/20 05:21:31;;;;;;;;;;;;;;;12.64;66.73;95397.53;5054015;28;1030;-60
2022/09/20 05:24:12;;;;;;;;;;;;;;;12.67;66.87;95391.81;5054188;28;1111;-59
2022/09/20 05:27:07;;;;;;;;;;;;;;;12.66;66.67;95387.47;5054325;28;970;-60
2022/09/20 05:29:52;;;;;;;;;;;;;;;12.79;66.78;95395.03;5049228;28;1914;-60
2022/09/20 05:32:37;;;;;;;;;;;;;;;12.82;66.92;95395.50;5054140;28;1021;-60
2022/09/20 05:35:14;;;;;;;;;;;;;;;12.95;65.74;95391.47;5054070;28;1044;-60
2022/09/20 05:37:40;;;;;;;;;;;;;;;13.03;65.97;95391.44;5054215;28;954;-60
2022/09/20 05:40:20;;;;;;;;;;;;;;;13.09;64.14;95388.09;5053824;28;1092;-59
2022/09/20 05:42:57;;;;;;;;;;;;;;;13.23;64.17;95386.56;5053833;28;943;-59
2022/09/20 05:45:23;;;;;;;;;;;;;;;13.32;63.83;95382.00;5054028;28;992;-59
2022/09/20 05:48:04;;;;;;;;;;;;;;;13.41;64.35;95383.66;5053746;28;1974;-59
2022/09/20 05:50:44;;;;;;;;;;;;;;;13.53;64.59;95381.47;5053936;28;1052;-59
2022/09/20 05:53:29;;;;;;;;;;;;;;;13.70;64.06;95387.56;5053755;28;1024;-59
2022/09/20 05:55:58;;;;;;;;;;;;;;;13.87;63.61;95391.91;5053402;28;1078;-59
2022/09/20 05:58:27;;;;;;;;;;;;;;;13.94;63.27;95395.53;5046237;28;1256;-59
2022/09/20 06:00:53;;;;;;;;;;;;;;;14.05;62.71;95397.00;5033519;28;1024;-59
2022/09/20 06:03:38;;;;;;;;;;;;;;;14.16;62.28;95393.06;5034214;28;1023;-59
2022/09/20 06:06:20;;;;;;;;;;;;;;;14.24;61.94;95404.59;5033682;28;976;-59
2022/09/20 06:08:56;;;;;;;;;;;;;;;14.28;61.32;95397.00;5033528;28;1977;-59
2022/09/20 06:11:42;;;;;;;;;;;;;;;14.31;61.68;95402.06;5033564;28;1012;-59
2022/09/20 06:14:29;;;;;;;;;;;;;;;14.36;61.70;95402.38;5033608;28;1036;-59
2022/09/20 06:17:06;;;;;;;;;;;;;;;14.48;60.85;95396.56;5033564;28;960;-59
2022/09/20 06:19:49;;;;;;;;;;;;;;;14.59;61.20;95398.88;5033560;28;1212;-59
2022/09/20 06:22:18;;;;;;;;;;;;;;;14.72;60.66;95392.88;5033420;28;960;-60
2022/09/20 06:24:57;;;;;;;;;;;;;;;14.86;59.63;95402.84;5033379;28;1083;-60
2022/09/20 06:27:27;;;;;;;;;;;;;;;14.97;58.49;95401.59;5033384;28;1989;-60
2022/09/20 06:29:58;;;;;;;;;;;;;;;15.05;58.50;95403.38;5033446;28;999;-60
2022/09/20 06:32:26;;;;;;;;;;;;;;;15.18;57.76;95408.97;5033528;28;968;-59
2022/09/20 06:34:52;;;;;;;;;;;;;;;15.28;56.68;95404.13;5032804;28;992;-59
2022/09/20 06:43:15;;;;;;;;;;;;;;;15.86;54.21;95406.22;5033265;28;1088;-59
2022/09/20 06:45:41;;;;;;;;;;;;;;;15.93;52.58;95399.03;5033197;28;1079;-60
2022/09/20 06:48:11;;;;;;;;;;;;;;;16.10;52.69;95407.75;5033263;28;1985;-59
2022/09/20 06:50:37;;;;;;;;;;;;;;;16.25;52.22;95405.88;5033388;28;1035;-59
2022/09/20 06:53:04;;;;;;;;;;;;;;;16.31;50.97;95409.66;5033021;28;1011;-59
2022/09/20 06:55:35;;;;;;;;;;;;;;;16.42;50.11;95411.88;5033114;28;1173;-59
2022/09/20 06:58:02;;;;;;;;;;;;;;;16.45;49.70;95408.78;5037255;28;1299;-59
2022/09/20 07:00:29;;;;;;;;;;;;;;;16.54;48.65;95407.66;5053028;28;1104;-59
2022/09/20 07:02:55;;;;;;;;;;;;;;;16.65;48.41;95403.59;5052695;28;1041;-59
2022/09/20 07:05:23;;;;;;;;;;;;;;;16.80;47.51;95411.63;5053069;28;965;-59
2022/09/20 07:07:49;;;;;;;;;;;;;;;16.92;48.22;95412.81;5052707;28;1989;-60
2022/09/20 07:10:15;;;;;;;;;;;;;;;17.10;48.33;95414.22;5052994;28;1044;-59
2022/09/20 07:12:42;;;;;;;;;;;;;;;17.26;47.05;95411.19;5052662;28;997;-59
2022/09/20 07:15:08;;;;;;;;;;;;;;;17.45;45.92;95417.78;5052835;28;1037;-59
2022/09/20 07:17:34;;;;;;;;;;;;;;;17.69;45.22;95418.38;5052867;28;1028;-59
2022/09/20 07:20:00;;;;;;;;;;;;;;;17.85;44.18;95422.63;5052865;28;1041;-59
2022/09/20 07:22:26;;;;;;;;;;;;;;;17.84;44.45;95416.41;5052664;28;1952;-59
2022/09/20 07:24:52;;;;;;;;;;;;;;;17.33;46.02;95414.78;5052745;28;957;-60
2022/09/20 07:27:19;;;;;;;;;;;;;;;18.01;44.87;95421.50;5052486;28;1021;-59
2022/09/20 07:29:46;;;;;;;;;;;;;;;17.76;43.90;95413.84;5052789;28;1910;-59
2022/09/20 07:32:12;;;;;;;;;;;;;;;17.49;46.34;95418.22;5052522;28;1076;-59
2022/09/20 07:34:38;;;;;;;;;;;;;;;17.26;47.06;95426.59;5052856;28;1044;-59
2022/09/20 07:37:04;;;;;;;;;;;;;;;18.81;43.02;95417.19;5052400;28;1052;-60
2022/09/20 07:39:30;;;;;;;;;;;;;;;20.19;39.91;95429.19;5052718;28;1053;-60
2022/09/20 07:41:56;;;;;;;;;;;;;;;21.30;39.72;95438.00;5052325;28;917;-60
2022/09/20 07:44:26;;;;;;;;;;;;;;;21.89;37.94;95438.53;5053561;28;1155;-60
2022/09/20 07:46:54;;;;;;;;;;;;;;;22.72;36.42;95446.19;5055957;28;1201;-61
2022/09/20 07:49:20;;;;;;;;;;;;;;;24.48;33.63;95443.97;5056204;28;1914;-60
2022/09/20 07:51:47;;;;;;;;;;;;;;;26.03;31.53;95457.50;5056036;28;1049;-61
2022/09/20 07:54:14;;;;;;;;;;;;;;;28.62;28.62;95477.22;5056011;28;966;-61
2022/09/20 07:56:40;;;;;;;;;;;;;;;29.17;28.02;95475.00;5055740;28;1316;-62
2022/09/20 07:59:06;;;;;;;;;;;;;;;29.68;25.70;95488.88;5042605;28;1323;-61
2022/09/20 08:01:32;;;;;;;;;;;;;;;31.00;24.85;95491.78;5036205;28;1023;-61
2022/09/20 08:03:58;;;;;;;;;;;;;;;32.87;23.04;95505.63;5034624;28;1060;-62
2022/09/20 08:06:25;;;;;;;;;;;;;;;33.91;21.29;95500.41;5036444;28;995;-61
2022/09/20 08:08:51;;;;;;;;;;;;;;;29.68;25.67;95488.88;5035555;28;1988;-60
2022/09/20 08:11:19;;;;;;;;;;;;;;;26.75;29.47;95471.38;5035747;28;1004;-61
2022/09/20 08:13:46;;;;;;;;;;;;;;;24.28;32.81;95453.41;5035514;28;1036;-61
2022/09/20 08:16:15;;;;;;;;;;;;;;;22.45;34.53;95440.25;5035920;28;1020;-60
2022/09/20 08:18:55;;;;;;;;;;;;;;;21.42;35.93;95426.19;5035428;28;1032;-60
2022/09/20 08:21:21;;;;;;;;;;;;;;;29.45;25.77;95467.34;5035699;28;1116;-60
2022/09/20 08:23:47;;;;;;;;;;;;;;;29.49;24.14;95468.47;5035303;28;992;-61
2022/09/20 08:26:17;;;;;;;;;;;;;;;25.72;30.39;95445.19;5035810;28;1007;-61
2022/09/20 08:28:44;;;;;;;;;;;;;;;23.29;33.27;95423.19;5035152;28;1910;-60
2022/09/20 08:31:12;;;;;;;;;;;;;;;21.66;35.02;95415.53;5035611;28;1116;-61
2022/09/20 08:33:38;;;;;;;;;;;;;;;20.28;37.08;95398.06;5035359;28;960;-61
2022/09/20 08:36:05;;;;;;;;;;;;;;;22.71;34.49;95400.94;5035358;28;1042;-60
2022/09/20 08:38:31;;;;;;;;;;;;;;;28.29;26.90;95435.22;5035151;28;1063;-61
2022/09/20 08:41:06;;;;;;;;;;;;;;;26.61;28.72;95438.03;5035438;28;1019;-61
2022/09/20 08:43:37;;;;;;;;;;;;;;;24.62;31.56;95425.41;5035225;28;1031;-61
2022/09/20 08:46:04;;;;;;;;;;;;;;;27.34;28.33;95424.88;5035202;28;980;-58
2022/09/20 08:48:32;;;;;;;;;;;;;;;28.50;27.03;95433.41;5034964;28;2003;-58
2022/09/20 08:51:01;;;;;;;;;;;;;;;29.72;25.76;95434.84;5035294;28;1028;-59
2022/09/20 08:53:28;;;;;;;;;;;;;;;31.73;23.09;95443.31;5034849;28;1472;-59
2022/09/20 08:59:20;;;;;;;;;;;;;;;30.33;24.17;95444.22;4130625;28;1820;-59
2022/09/20 09:01:47;;;;;;;;;;;;;;;28.04;27.06;95427.66;5054924;28;950;-58
2022/09/20 09:04:18;;;;;;;;;;;;;;;25.63;28.92;95406.47;5054967;28;998;-58
2022/09/20 09:06:45;;;;;;;;;;;;;;;23.76;31.33;95394.03;5054689;28;962;-58
2022/09/20 09:09:16;;;;;;;;;;;;;;;22.58;33.75;95376.59;5054396;28;1910;-58
2022/09/20 09:11:43;;;;;;;;;;;;;;;21.89;35.49;95363.16;5054547;28;970;-57
2022/09/20 09:17:08;;;;;;;;;;;;;;;21.15;36.70;95352.16;5054511;28;1135;-58
2022/09/20 09:19:44;;;;;;;;;;;;;;;20.62;36.98;95344.38;5054228;28;1928;-57
2022/09/20 09:22:16;;;;;;;;;;;;;;;20.23;37.31;95336.25;5054385;28;1022;-57
2022/09/20 09:24:42;;;;;;;;;;;;;;;19.89;37.78;95340.97;5054412;28;1060;-57
2022/09/20 09:27:18;;;;;;;;;;;;;;;19.97;37.90;95331.75;5054483;28;938;-58
2022/09/20 09:29:54;;;;;;;;;;;;;;;20.28;37.67;95324.75;5053982;28;1906;-57
2022/09/20 09:32:28;;;;;;;;;;;;;;;20.28;37.23;95331.00;5054289;28;980;-58
2022/09/20 09:34:55;;;;;;;;;;;;;;;20.20;37.60;95327.69;5053779;28;1080;-58
2022/09/20 09:37:27;;;;;;;;;;;;;;;20.24;38.18;95324.34;5054365;28;1053;-58
2022/09/20 09:40:12;;;;;;;;;;;;;;;20.24;37.56;95320.78;5053834;28;1088;-58
2022/09/20 09:42:46;;;;;;;;;;;;;;;20.31;38.30;95318.84;5054152;28;1025;-58
2022/09/20 09:45:24;;;;;;;;;;;;;;;20.24;36.79;95316.19;5053805;28;1032;-58
2022/09/20 09:47:50;;;;;;;;;;;;;;;20.38;37.89;95322.38;5053776;28;1910;-58
2022/09/20 09:50:21;;;;;;;;;;;;;;;20.51;38.18;95310.59;5053940;28;1010;-57
2022/09/20 09:53:08;;;;;;;;;;;;;;;20.43;38.09;95310.84;5053841;28;993;-58
2022/09/20 09:55:51;;;;;;;;;;;;;;;20.50;37.93;95306.22;5053622;28;1029;-58
2022/09/20 09:58:26;;;;;;;;;;;;;;;20.39;37.45;95310.44;5046884;28;1343;-58
2022/09/20 10:00:52;;;;;;;;;;;;;;;20.14;36.43;95298.72;5033558;28;1039;-58
2022/09/20 10:03:42;;;;;;;;;;;;;;;20.04;38.33;95305.44;5033945;28;972;-58
2022/09/20 10:06:27;;;;;;;;;;;;;;;20.10;37.56;95303.72;5033980;28;1237;-58
2022/09/20 10:09:11;;;;;;;;;;;;;;;20.16;38.18;95297.44;5032806;28;1906;-58
2022/09/20 10:11:48;;;;;;;;;;;;;;;19.76;36.96;95304.94;5033759;28;1141;-58
2022/09/20 10:14:20;;;;;;;;;;;;;;;19.42;39.43;95299.56;5033451;28;1033;-58
2022/09/20 10:16:46;;;;;;;;;;;;;;;19.34;39.26;95293.56;5033428;28;1020;-57
2022/09/20 10:19:18;;;;;;;;;;;;;;;19.55;39.32;95293.28;5033386;28;1032;-57
2022/09/20 10:21:49;;;;;;;;;;;;;;;19.83;38.61;95292.19;5033482;28;1110;-58
2022/09/20 10:24:31;;;;;;;;;;;;;;;19.90;36.84;95295.72;5033484;28;963;-58
2022/09/20 10:26:57;;;;;;;;;;;;;;;19.93;37.76;95292.53;5033304;28;1036;-58
2022/09/20 10:29:42;;;;;;;;;;;;;;;20.01;37.59;95292.28;5033167;28;1902;-57
2022/09/20 10:32:25;;;;;;;;;;;;;;;20.00;36.78;95296.06;5033546;28;1039;-58
2022/09/20 10:35:10;;;;;;;;;;;;;;;19.99;36.82;95288.97;5033245;28;952;-57
2022/09/20 10:37:59;;;;;;;;;;;;;;;19.99;37.40;95288.97;5033285;28;941;-57
2022/09/20 10:43:32;;;;;;;;;;;;;;;20.14;38.11;95291.38;5033315;28;1005;-58
2022/09/20 10:45:58;;;;;;;;;;;;;;;20.15;37.69;95292.25;5032932;28;1024;-58
2022/09/20 10:48:32;;;;;;;;;;;;;;;20.15;37.37;95293.06;5033174;28;1902;-57
2022/09/20 10:51:01;;;;;;;;;;;;;;;20.22;38.26;95287.59;5032945;28;1036;-57
2022/09/20 10:53:32;;;;;;;;;;;;;;;20.20;36.13;95290.50;5033665;28;920;-57
2022/09/20 10:56:08;;;;;;;;;;;;;;;20.05;35.50;95290.81;5033001;28;1100;-58
2022/09/20 10:58:45;;;;;;;;;;;;;;;20.12;36.17;95287.25;5041895;28;1269;-57
2022/09/20 11:01:19;;;;;;;;;;;;;;;19.94;36.08;95288.78;5053126;28;969;-57
2022/09/20 11:03:48;;;;;;;;;;;;;;;19.79;37.02;95271.97;5053065;28;958;-58
2022/09/20 11:06:34;;;;;;;;;;;;;;;19.94;37.49;95274.38;5052846;28;1174;-58
2022/09/20 11:09:02;;;;;;;;;;;;;;;20.11;36.50;95261.97;5052720;28;1985;-57
2022/09/20 11:11:31;;;;;;;;;;;;;;;20.13;36.45;95257.16;5052980;28;1024;-58
2022/09/20 11:14:08;;;;;;;;;;;;;;;20.13;36.78;95257.16;5052817;28;1950;-58
2022/09/20 11:16:37;;;;;;;;;;;;;;;20.21;37.73;95247.94;5052825;28;1058;-57
2022/09/20 11:19:12;;;;;;;;;;;;;;;20.23;36.60;95248.53;5052944;28;972;-57
2022/09/20 11:21:38;;;;;;;;;;;;;;;20.24;36.50;95242.03;5056478;28;1025;-58
2022/09/20 11:24:18;;;;;;;;;;;;;;;20.25;37.99;95230.97;5055598;28;1029;-58
2022/09/20 11:26:48;;;;;;;;;;;;;;;20.20;37.06;95240.81;5056570;28;1004;-58
2022/09/20 11:29:24;;;;;;;;;;;;;;;20.19;37.89;95234.56;5056586;28;1902;-58
2022/09/20 11:31:53;;;;;;;;;;;;;;;20.20;36.97;95235.41;5056254;28;1010;-58
2022/09/20 11:34:24;;;;;;;;;;;;;;;20.16;36.31;95232.28;5056738;28;991;-58
2022/09/20 11:36:56;;;;;;;;;;;;;;;20.00;34.93;95236.34;5056202;28;968;-58
2022/09/20 11:39:34;;;;;;;;;;;;;;;20.02;36.13;95228.84;5056489;28;958;-58
2022/09/20 11:42:01;;;;;;;;;;;;;;;19.97;35.23;95231.34;5056093;28;974;-58
2022/09/20 11:44:27;;;;;;;;;;;;;;;20.09;36.50;95228.81;5056230;28;1218;-58
2022/09/20 11:47:03;;;;;;;;;;;;;;;20.11;35.11;95228.56;5056172;28;978;-57
2022/09/20 11:49:45;;;;;;;;;;;;;;;20.12;35.78;95208.53;5056324;28;1993;-57
2022/09/20 11:52:14;;;;;;;;;;;;;;;20.06;35.39;95208.34;5056134;28;950;-58
2022/09/20 11:54:47;;;;;;;;;;;;;;;20.10;37.01;95197.88;5055954;28;1294;-57
2022/09/20 11:57:15;;;;;;;;;;;;;;;20.16;37.43;95201.59;5056077;28;1060;-58
2022/09/20 11:59:49;;;;;;;;;;;;;;;20.15;36.89;95205.38;5037620;28;1245;-58
2022/09/20 12:02:20;;;;;;;;;;;;;;;20.15;37.20;95194.53;5036171;28;977;-58
2022/09/20 12:04:51;;;;;;;;;;;;;;;20.19;35.67;95195.75;5035984;28;1012;-58
2022/09/20 12:07:27;;;;;;;;;;;;;;;20.24;35.05;95198.59;5035706;28;936;-58
2022/09/20 12:09:57;;;;;;;;;;;;;;;20.11;35.72;95190.56;5036011;28;1983;-58
2022/09/20 12:12:34;;;;;;;;;;;;;;;20.10;35.92;95192.47;5035818;28;968;-58
2022/09/20 12:15:01;;;;;;;;;;;;;;;20.07;34.83;95192.88;5034644;28;954;-58
2022/09/20 12:17:43;;;;;;;;;;;;;;;20.02;35.06;95190.84;5035650;28;973;-58
2022/09/20 12:20:28;;;;;;;;;;;;;;;20.08;36.71;95175.56;5035688;28;1100;-58
2022/09/20 12:23:14;;;;;;;;;;;;;;;20.12;35.75;95178.66;5035595;28;1040;-58
2022/09/20 12:25:59;;;;;;;;;;;;;;;20.14;36.70;95165.72;5035520;28;1295;-58
2022/09/20 12:28:51;;;;;;;;;;;;;;;20.14;36.72;95166.53;5035288;28;1906;-57
2022/09/20 12:31:20;;;;;;;;;;;;;;;20.14;36.36;95165.72;5034119;28;1234;-58
2022/09/20 12:34:05;;;;;;;;;;;;;;;20.12;36.70;95168.63;5035402;28;1039;-57
2022/09/20 12:37:03;;;;;;;;;;;;;;;20.14;36.96;95163.81;5035329;28;956;-57
2022/09/20 12:39:29;;;;;;;;;;;;;;;20.07;36.17;95165.75;5033931;28;1421;-57
2022/09/20 12:42:11;;;;;;;;;;;;;;;20.11;36.02;95160.72;5035118;28;945;-57
2022/09/20 12:44:38;;;;;;;;;;;;;;;20.04;36.83;95150.75;5035197;28;1028;-57
2022/09/20 12:47:14;;;;;;;;;;;;;;;20.01;36.45;95156.59;5034960;28;1088;-57
2022/09/20 12:55:33;;;;;;;;;;;;;;;20.05;36.84;95157.00;5035044;28;1198;-57
2022/09/20 12:58:02;;;;;;;;;;;;;;;20.05;37.12;95157.00;5038593;28;1312;-58
2022/09/20 13:00:48;;;;;;;;;;;;;;;20.01;35.84;95155.78;5055029;28;1027;-58
2022/09/20 13:03:17;;;;;;;;;;;;;;;19.97;36.83;95154.56;5033180;28;1157;-58
2022/09/20 13:05:47;;;;;;;;;;;;;;;19.96;36.92;95145.59;5054658;28;1027;-58
2022/09/20 13:08:27;;;;;;;;;;;;;;;19.98;36.73;95140.78;5054427;28;1906;-58
2022/09/20 13:10:59;;;;;;;;;;;;;;;20.00;36.77;95149.53;5054726;28;1030;-58
2022/09/20 13:13:40;;;;;;;;;;;;;;;20.01;37.26;95144.91;5054495;28;1061;-58
2022/09/20 13:16:12;;;;;;;;;;;;;;;19.95;36.10;95141.19;5054567;28;1065;-58
2022/09/20 13:18:39;;;;;;;;;;;;;;;19.91;35.52;95141.88;5054353;28;983;-58
2022/09/20 13:21:06;;;;;;;;;;;;;;;19.94;36.15;95139.56;5054416;28;1036;-58
2022/09/20 13:23:39;;;;;;;;;;;;;;;19.97;37.12;95143.69;5054179;28;1214;-58
2022/09/20 13:26:08;;;;;;;;;;;;;;;20.02;36.71;95139.28;5054449;28;1044;-58
2022/09/20 13:28:39;;;;;;;;;;;;;;;20.05;36.67;95146.13;5054072;28;1991;-58
2022/09/20 13:31:21;;;;;;;;;;;;;;;20.02;36.59;95146.59;5054219;28;1033;-58
2022/09/20 13:33:47;;;;;;;;;;;;;;;19.97;37.32;95130.97;5053951;28;1032;-58
2022/09/20 13:36:13;;;;;;;;;;;;;;;19.95;36.87;95141.19;5054145;28;1111;-58
2022/09/20 13:38:40;;;;;;;;;;;;;;;19.96;36.23;95136.63;5053993;28;1038;-58
2022/09/20 13:41:09;;;;;;;;;;;;;;;19.93;36.93;95127.03;5054163;28;1311;-59
2022/09/20 13:43:42;;;;;;;;;;;;;;;19.89;37.02;95125.81;5053602;28;953;-58
2022/09/20 13:46:17;;;;;;;;;;;;;;;19.86;38.40;95121.66;5054210;28;1040;-59
2022/09/20 13:48:47;;;;;;;;;;;;;;;19.79;38.09;95131.72;5053822;28;1917;-58
2022/09/20 13:51:23;;;;;;;;;;;;;;;19.72;38.04;95125.50;5053910;28;1040;-59
2022/09/20 13:53:49;;;;;;;;;;;;;;;19.59;37.71;95125.56;5053608;28;984;-58
2022/09/20 13:56:15;;;;;;;;;;;;;;;19.47;38.69;95128.13;5054265;28;1037;-58